Time;durP1;ratioP1;P1;durP2;ratioP2;P2;SDS_P1;SDS_P2;PMS_P1;PMS_P2;Temp;Humidity;BMP_temperature;BMP_pressure;BME280_temperature;BME280_humidity;BME280_pressure;Samples;Min_cycle;Max_cycle;Signal;HPM_P1;HPM_P2
2021/09/08 00:02:03;;;;;;;;;;;;;;;17.61;67.21;101979.25;5093414;28;19916;-36
2021/09/08 00:04:28;;;;;;;;;;;;;;;17.60;66.74;101976.78;5093881;28;19908;-36
2021/09/08 00:06:54;;;;;;;;;;;;;;;17.57;68.01;101974.53;5093564;28;19994;-36
2021/09/08 00:09:19;;;;;;;;;;;;;;;17.53;69.71;101967.94;5093645;28;19908;-36
2021/09/08 00:11:45;;;;;;;;;;;;;;;17.45;68.77;101964.53;5092240;28;19957;-36
2021/09/08 00:14:10;;;;;;;;;;;;;;;17.42;68.69;101962.31;5093586;28;20252;-36
2021/09/08 00:16:35;;;;;;;;;;;;;;;17.40;68.72;101967.19;5095006;28;20053;-36
2021/09/08 00:19:01;;;;;;;;;;;;;;;17.38;68.90;101963.06;5093080;28;20005;-36
2021/09/08 00:21:26;;;;;;;;;;;;;;;17.36;68.22;101957.00;5076084;28;19916;-36
2021/09/08 00:23:51;;;;;;;;;;;;;;;17.36;68.42;101965.19;5093456;28;19952;-36
2021/09/08 00:26:16;;;;;;;;;;;;;;;17.30;70.41;101961.56;5094278;28;20006;-36
2021/09/08 00:28:42;;;;;;;;;;;;;;;17.25;69.75;101959.56;5093397;28;19908;-36
2021/09/08 00:31:07;;;;;;;;;;;;;;;17.25;68.71;101951.38;5093678;28;20341;-36
2021/09/08 00:33:32;;;;;;;;;;;;;;;17.24;68.84;101960.66;5093728;28;19953;-36
2021/09/08 00:35:57;;;;;;;;;;;;;;;17.23;69.95;101955.44;5093307;28;19977;-36
2021/09/08 00:38:23;;;;;;;;;;;;;;;17.22;68.80;101951.84;5093233;28;19908;-36
2021/09/08 00:40:48;;;;;;;;;;;;;;;17.22;68.34;101948.31;5093284;28;19908;-36
2021/09/08 00:43:13;;;;;;;;;;;;;;;17.20;68.51;101948.56;5097381;28;19909;-36
2021/09/08 00:45:38;;;;;;;;;;;;;;;17.21;68.27;101950.22;5097869;28;20006;-36
2021/09/08 00:48:04;;;;;;;;;;;;;;;17.19;68.61;101941.44;5097174;28;19915;-36
2021/09/08 00:50:30;;;;;;;;;;;;;;;17.19;68.29;101948.81;5097539;28;19969;-36
2021/09/08 00:52:57;;;;;;;;;;;;;;;17.17;68.08;101946.31;5097355;28;19908;-36
2021/09/08 00:55:25;;;;;;;;;;;;;;;17.16;68.45;101944.66;5096950;28;19944;-36
2021/09/08 00:57:51;;;;;;;;;;;;;;;17.15;68.55;101942.19;5097107;28;19915;-36
2021/09/08 01:00:16;;;;;;;;;;;;;;;17.12;68.44;101932.56;5096620;28;19912;-36
2021/09/08 01:02:41;;;;;;;;;;;;;;;17.12;68.30;101937.19;5097698;28;19908;-36
2021/09/08 01:05:07;;;;;;;;;;;;;;;17.11;68.75;101936.38;5096751;28;19915;-36
2021/09/08 01:07:33;;;;;;;;;;;;;;;17.08;68.67;101936.03;5097475;28;19986;-36
2021/09/08 01:09:59;;;;;;;;;;;;;;;17.06;68.50;101938.19;5096789;28;19915;-36
2021/09/08 01:12:24;;;;;;;;;;;;;;;16.99;68.71;101928.28;5096891;28;19908;-36
2021/09/08 01:14:49;;;;;;;;;;;;;;;16.98;68.85;101932.09;5096528;28;19918;-36
2021/09/08 01:17:16;;;;;;;;;;;;;;;16.97;69.28;101930.41;5096904;28;19907;-36
2021/09/08 01:19:41;;;;;;;;;;;;;;;16.91;69.69;101934.13;5096610;28;20312;-36
2021/09/08 01:22:07;;;;;;;;;;;;;;;16.87;69.69;101934.88;5096573;28;19908;-36
2021/09/08 01:24:32;;;;;;;;;;;;;;;16.83;70.15;101928.25;5096792;28;19907;-36
2021/09/08 01:26:58;;;;;;;;;;;;;;;16.81;69.11;101924.94;5096775;28;19962;-36
2021/09/08 01:29:23;;;;;;;;;;;;;;;16.82;69.08;101932.06;5096407;28;19990;-36
2021/09/08 01:31:56;;;;;;;;;;;;;;;16.80;69.30;101931.47;5096686;28;19908;-36
2021/09/08 01:34:22;;;;;;;;;;;;;;;16.79;69.19;101925.19;5096657;28;19908;-36
2021/09/08 01:36:47;;;;;;;;;;;;;;;16.78;69.28;101928.16;5095269;28;19907;-36
2021/09/08 01:39:16;;;;;;;;;;;;;;;16.76;69.44;101930.31;5096179;28;20002;-36
2021/09/08 01:41:41;;;;;;;;;;;;;;;16.73;69.05;101926.16;5096414;28;19916;-36
2021/09/08 01:44:07;;;;;;;;;;;;;;;16.70;69.41;101923.91;5097307;28;20001;-36
2021/09/08 01:46:32;;;;;;;;;;;;;;;16.67;69.44;101929.84;5096629;28;19908;-36
2021/09/08 01:48:57;;;;;;;;;;;;;;;16.63;69.87;101926.75;5096381;28;19912;-36
2021/09/08 01:51:22;;;;;;;;;;;;;;;16.60;69.68;101919.09;5096546;28;19908;-36
2021/09/08 01:53:47;;;;;;;;;;;;;;;16.59;69.75;101917.44;5095685;28;19931;-36
2021/09/08 01:56:13;;;;;;;;;;;;;;;16.55;69.60;101919.00;5096493;28;19908;-36
2021/09/08 01:58:38;;;;;;;;;;;;;;;16.54;69.64;101920.03;5095765;28;19908;-36
2021/09/08 02:01:03;;;;;;;;;;;;;;;16.52;69.85;101919.47;5094280;28;20291;-36
2021/09/08 02:03:29;;;;;;;;;;;;;;;16.53;69.85;101912.94;5096246;28;20354;-36
2021/09/08 02:05:54;;;;;;;;;;;;;;;16.53;70.32;101906.63;5095756;28;19907;-36
2021/09/08 02:08:19;;;;;;;;;;;;;;;16.54;70.11;101911.84;5095624;28;19958;-36
2021/09/08 02:10:44;;;;;;;;;;;;;;;16.55;70.03;101907.25;5096105;28;19915;-36
2021/09/08 02:13:09;;;;;;;;;;;;;;;16.51;71.78;101909.63;5095552;28;19914;-36
2021/09/08 02:15:35;;;;;;;;;;;;;;;16.45;70.87;101899.69;5095671;28;19912;-36
2021/09/08 02:18:00;;;;;;;;;;;;;;;16.42;70.68;101906.44;5095237;28;19908;-36
2021/09/08 02:20:26;;;;;;;;;;;;;;;16.36;72.30;101898.41;5095369;28;20346;-36
2021/09/08 02:22:51;;;;;;;;;;;;;;;16.34;70.90;101898.66;5095824;28;19908;-36
2021/09/08 02:25:16;;;;;;;;;;;;;;;16.32;71.86;101894.53;5095424;28;19911;-36
2021/09/08 02:27:41;;;;;;;;;;;;;;;16.32;72.32;101898.06;5095167;28;19911;-36
2021/09/08 02:30:07;;;;;;;;;;;;;;;16.30;70.96;101891.19;5095264;28;19951;-36
2021/09/08 02:32:32;;;;;;;;;;;;;;;16.28;72.50;101890.63;5095587;28;20228;-36
2021/09/08 02:34:58;;;;;;;;;;;;;;;16.23;72.04;101889.44;5095181;28;20304;-36
2021/09/08 02:37:23;;;;;;;;;;;;;;;16.19;72.26;101896.44;5095254;28;20359;-36
2021/09/08 02:39:48;;;;;;;;;;;;;;;16.19;72.04;101892.91;5095755;28;19908;-36
2021/09/08 02:42:14;;;;;;;;;;;;;;;16.15;73.97;101891.72;5095427;28;20328;-36
2021/09/08 02:44:39;;;;;;;;;;;;;;;16.09;74.49;101888.06;5095309;28;19990;-36
2021/09/08 02:47:04;;;;;;;;;;;;;;;16.04;74.37;101884.41;5094793;28;19915;-36
2021/09/08 02:49:29;;;;;;;;;;;;;;;16.04;73.36;101879.78;5095051;28;19915;-36
2021/09/08 02:51:55;;;;;;;;;;;;;;;16.07;72.97;101887.50;5095472;28;19908;-36
2021/09/08 02:54:20;;;;;;;;;;;;;;;16.07;73.60;101881.22;5094518;28;20010;-36
2021/09/08 02:56:45;;;;;;;;;;;;;;;16.04;72.98;101879.78;5094824;28;19944;-36
2021/09/08 02:59:10;;;;;;;;;;;;;;;16.06;72.26;101876.84;5094381;28;19908;-36
2021/09/08 03:01:35;;;;;;;;;;;;;;;16.04;74.48;101876.22;5094577;28;19912;-36
2021/09/08 03:04:01;;;;;;;;;;;;;;;16.00;72.91;101875.88;5093830;28;19915;-36
2021/09/08 03:06:26;;;;;;;;;;;;;;;15.99;72.82;101879.69;5095203;28;19973;-36
2021/09/08 03:08:51;;;;;;;;;;;;;;;15.98;73.46;101878.03;5094476;28;19908;-36
2021/09/08 03:11:16;;;;;;;;;;;;;;;15.95;73.19;101883.94;5095628;28;19908;-35
2021/09/08 03:13:42;;;;;;;;;;;;;;;15.96;72.83;101880.19;5094818;28;19931;-36
2021/09/08 03:16:07;;;;;;;;;;;;;;;15.97;72.89;101876.38;5093124;28;19919;-36
2021/09/08 03:18:32;;;;;;;;;;;;;;;15.96;74.66;101880.19;5094336;28;19965;-36
2021/09/08 03:20:57;;;;;;;;;;;;;;;15.91;73.98;101872.72;5094580;28;20319;-36
2021/09/08 03:23:23;;;;;;;;;;;;;;;15.89;74.19;101884.94;5094325;28;19962;-35
2021/09/08 03:25:48;;;;;;;;;;;;;;;15.85;74.22;101879.13;5093426;28;19952;-36
2021/09/08 03:28:13;;;;;;;;;;;;;;;15.84;73.69;101876.63;5094120;28;19915;-36
2021/09/08 03:30:38;;;;;;;;;;;;;;;15.84;74.92;101872.00;5094456;28;19908;-36
2021/09/08 03:33:03;;;;;;;;;;;;;;;15.85;74.03;101881.03;5094169;28;20371;-36
2021/09/08 03:35:29;;;;;;;;;;;;;;;15.80;74.31;101872.72;5094105;28;20474;-35
2021/09/08 03:37:55;;;;;;;;;;;;;;;15.78;74.27;101869.44;5094101;28;19915;-35
2021/09/08 03:40:20;;;;;;;;;;;;;;;15.78;75.28;101861.25;5094242;28;19964;-35
2021/09/08 03:42:45;;;;;;;;;;;;;;;15.76;74.69;101864.19;5094583;28;19927;-35
2021/09/08 03:45:11;;;;;;;;;;;;;;;15.77;74.04;101862.31;5093928;28;19915;-35
2021/09/08 03:47:37;;;;;;;;;;;;;;;15.76;74.46;101863.38;5093599;28;19912;-35
2021/09/08 03:50:03;;;;;;;;;;;;;;;15.74;75.85;101858.16;5094241;28;19915;-35
2021/09/08 03:52:28;;;;;;;;;;;;;;;15.71;74.34;101858.63;5094536;28;19998;-36
2021/09/08 03:54:53;;;;;;;;;;;;;;;15.67;74.91;101861.03;5093926;28;19908;-36
2021/09/08 03:57:18;;;;;;;;;;;;;;;15.64;77.14;101847.06;5093928;28;19919;-35
2021/09/08 03:59:43;;;;;;;;;;;;;;;15.59;75.33;101847.72;5093465;28;19916;-36
2021/09/08 04:02:09;;;;;;;;;;;;;;;15.61;74.66;101856.50;5093756;28;19919;-36
2021/09/08 04:04:34;;;;;;;;;;;;;;;15.59;74.77;101853.19;5093525;28;19908;-37
2021/09/08 04:06:59;;;;;;;;;;;;;;;15.59;75.01;101855.91;5093701;28;19919;-37
2021/09/08 04:09:24;;;;;;;;;;;;;;;15.59;74.86;101845.00;5093444;28;19908;-37
2021/09/08 04:11:49;;;;;;;;;;;;;;;15.61;74.88;101850.22;5094061;28;19907;-37
2021/09/08 04:14:15;;;;;;;;;;;;;;;15.58;74.20;101848.81;5093931;28;19912;-37
2021/09/08 04:16:40;;;;;;;;;;;;;;;15.60;75.22;101848.56;5097970;28;19912;-37
2021/09/08 04:19:05;;;;;;;;;;;;;;;15.57;74.91;101843.59;5098421;28;19908;-34
2021/09/08 04:21:30;;;;;;;;;;;;;;;15.56;73.86;101850.94;5097348;28;19908;-35
2021/09/08 04:23:56;;;;;;;;;;;;;;;15.56;74.29;101844.66;5097977;28;19916;-34
2021/09/08 04:26:21;;;;;;;;;;;;;;;15.55;74.02;101841.09;5098121;28;20023;-34
2021/09/08 04:28:46;;;;;;;;;;;;;;;15.54;73.98;101838.63;5097267;28;19923;-34
2021/09/08 04:31:12;;;;;;;;;;;;;;;15.51;73.80;101850.81;5097574;28;19953;-34
2021/09/08 04:33:37;;;;;;;;;;;;;;;15.51;73.53;101845.38;5097438;28;19999;-34
2021/09/08 04:36:03;;;;;;;;;;;;;;;15.51;73.44;101848.09;5097858;28;19947;-34
2021/09/08 04:38:28;;;;;;;;;;;;;;;15.51;73.46;101841.81;5097479;28;19954;-34
2021/09/08 04:40:54;;;;;;;;;;;;;;;15.46;76.50;101846.09;5097568;28;20336;-34
2021/09/08 04:43:19;;;;;;;;;;;;;;;15.41;76.33;101840.53;5097570;28;20349;-34
2021/09/08 04:45:44;;;;;;;;;;;;;;;15.38;75.67;101846.47;5097319;28;20271;-34
2021/09/08 04:48:09;;;;;;;;;;;;;;;15.37;76.05;101841.25;5097205;28;19931;-35
2021/09/08 04:50:35;;;;;;;;;;;;;;;15.31;76.87;101840.31;5097493;28;20004;-36
2021/09/08 04:53:00;;;;;;;;;;;;;;;15.27;77.18;101836.38;5097145;28;19915;-37
2021/09/08 04:55:26;;;;;;;;;;;;;;;15.23;77.51;101843.41;5097452;28;19919;-36
2021/09/08 04:57:51;;;;;;;;;;;;;;;15.21;76.52;101842.78;5097109;28;20356;-36
2021/09/08 05:00:16;;;;;;;;;;;;;;;15.20;75.71;101841.16;5097496;28;19907;-36
2021/09/08 05:02:41;;;;;;;;;;;;;;;15.18;77.11;101833.22;5097465;28;19915;-36
2021/09/08 05:05:07;;;;;;;;;;;;;;;15.17;76.36;101831.53;5096892;28;19908;-36
2021/09/08 05:07:32;;;;;;;;;;;;;;;15.19;76.21;101839.50;5096908;28;20355;-36
2021/09/08 05:09:57;;;;;;;;;;;;;;;15.16;76.84;101831.78;5096515;28;20240;-36
2021/09/08 05:12:22;;;;;;;;;;;;;;;15.12;77.00;101836.03;5096579;28;20428;-36
2021/09/08 05:14:47;;;;;;;;;;;;;;;15.10;77.83;101833.56;5097009;28;19918;-36
2021/09/08 05:17:13;;;;;;;;;;;;;;;15.09;76.78;101837.38;5096430;28;19998;-36
2021/09/08 05:19:38;;;;;;;;;;;;;;;15.11;77.90;101828.94;5094834;28;20002;-36
2021/09/08 05:22:03;;;;;;;;;;;;;;;15.09;78.42;101829.19;5096594;28;19920;-36
2021/09/08 05:24:28;;;;;;;;;;;;;;;15.08;77.41;101832.13;5096449;28;19908;-36
2021/09/08 05:26:54;;;;;;;;;;;;;;;15.09;77.55;101831.09;5095488;28;20365;-36
2021/09/08 05:29:19;;;;;;;;;;;;;;;15.10;77.74;101830.84;5096254;28;19968;-36
2021/09/08 05:31:44;;;;;;;;;;;;;;;15.12;78.60;101830.59;5096428;28;20251;-36
2021/09/08 05:34:09;;;;;;;;;;;;;;;15.11;79.80;101829.78;5096300;28;20340;-36
2021/09/08 05:36:35;;;;;;;;;;;;;;;15.11;80.42;101821.59;5096276;28;19912;-36
2021/09/08 05:39:00;;;;;;;;;;;;;;;15.10;81.18;101825.41;5096260;28;19923;-36
2021/09/08 05:41:25;;;;;;;;;;;;;;;15.17;80.37;101823.34;5094471;28;20034;-36
2021/09/08 05:43:50;;;;;;;;;;;;;;;15.25;79.42;101827.63;5096017;28;19983;-36
2021/09/08 05:46:16;;;;;;;;;;;;;;;15.30;80.52;101827.75;5096012;28;20002;-36
2021/09/08 05:48:41;;;;;;;;;;;;;;;15.33;80.64;101818.28;5095788;28;19958;-36
2021/09/08 05:51:06;;;;;;;;;;;;;;;15.40;80.81;101827.16;5096287;28;19951;-36
2021/09/08 05:53:31;;;;;;;;;;;;;;;15.42;80.71;101822.28;5095669;28;19908;-36
2021/09/08 05:55:56;;;;;;;;;;;;;;;15.47;80.21;101825.13;5096198;28;20394;-36
2021/09/08 05:58:22;;;;;;;;;;;;;;;15.53;79.30;101826.91;5096095;28;19954;-36
2021/09/08 06:00:47;;;;;;;;;;;;;;;15.57;79.86;101828.06;5095528;28;19944;-36
2021/09/08 06:03:12;;;;;;;;;;;;;;;15.65;79.13;101826.88;5095483;28;20325;-36
2021/09/08 06:05:38;;;;;;;;;;;;;;;15.70;78.91;101825.09;5095548;28;19908;-35
2021/09/08 06:08:03;;;;;;;;;;;;;;;15.70;79.38;101819.63;5095688;28;20344;-36
2021/09/08 06:10:28;;;;;;;;;;;;;;;15.70;79.98;101822.38;5096402;28;19908;-35
2021/09/08 06:12:54;;;;;;;;;;;;;;;15.75;79.60;101823.53;5094356;28;20381;-36
2021/09/08 06:15:20;;;;;;;;;;;;;;;15.77;79.66;101815.97;5095735;28;19923;-36
2021/09/08 06:17:46;;;;;;;;;;;;;;;15.84;79.47;101817.47;5095970;28;19915;-36
2021/09/08 06:20:11;;;;;;;;;;;;;;;15.89;79.22;101820.28;5095511;28;19907;-36
2021/09/08 06:22:36;;;;;;;;;;;;;;;15.94;79.13;101819.56;5095808;28;20022;-36
2021/09/08 06:25:01;;;;;;;;;;;;;;;16.03;78.27;101812.66;5095327;28;19908;-36
2021/09/08 06:27:27;;;;;;;;;;;;;;;16.08;79.53;101818.19;5094946;28;19908;-36
2021/09/08 06:29:52;;;;;;;;;;;;;;;16.14;79.53;101817.22;5095966;28;20010;-36
2021/09/08 06:32:17;;;;;;;;;;;;;;;16.19;78.38;101809.13;5095167;28;20010;-36
2021/09/08 06:34:46;;;;;;;;;;;;;;;16.25;78.72;101809.22;5096186;28;20006;-36
2021/09/08 06:37:12;;;;;;;;;;;;;;;16.28;78.96;101814.19;5095414;28;20249;-36
2021/09/08 06:39:37;;;;;;;;;;;;;;;16.33;78.66;101815.13;5094937;28;19961;-36
2021/09/08 06:42:02;;;;;;;;;;;;;;;16.39;78.53;101807.84;5095293;28;19908;-36
2021/09/08 06:44:28;;;;;;;;;;;;;;;16.43;78.44;101806.28;5095259;28;19908;-36
2021/09/08 06:46:53;;;;;;;;;;;;;;;16.50;78.07;101798.78;5095587;28;19999;-36
2021/09/08 06:49:19;;;;;;;;;;;;;;;16.56;78.09;101807.88;5094914;28;19959;-36
2021/09/08 06:51:44;;;;;;;;;;;;;;;16.60;77.77;101801.66;5094666;28;19914;-36
2021/09/08 06:54:09;;;;;;;;;;;;;;;16.65;77.79;101800.91;5094868;28;19969;-36
2021/09/08 06:56:34;;;;;;;;;;;;;;;16.72;77.05;101794.22;5095081;28;20014;-36
2021/09/08 06:59:00;;;;;;;;;;;;;;;16.75;77.01;101794.84;5094700;28;19953;-36
2021/09/08 07:01:25;;;;;;;;;;;;;;;16.82;77.50;101792.75;5094896;28;20006;-36
2021/09/08 07:03:50;;;;;;;;;;;;;;;16.85;77.25;101794.97;5095472;28;19908;-36
2021/09/08 07:06:15;;;;;;;;;;;;;;;16.92;76.89;101787.44;5094687;28;19918;-36
2021/09/08 07:08:41;;;;;;;;;;;;;;;16.99;76.65;101785.38;5094263;28;19930;-35
2021/09/08 07:11:06;;;;;;;;;;;;;;;17.06;76.66;101775.06;5094918;28;19964;-36
2021/09/08 07:13:31;;;;;;;;;;;;;;;17.10;76.91;101775.41;5094218;28;19907;-36
2021/09/08 07:15:56;;;;;;;;;;;;;;;17.17;76.48;101767.84;5095145;28;20018;-36
2021/09/08 07:18:21;;;;;;;;;;;;;;;17.26;76.79;101769.06;5094433;28;19914;-36
2021/09/08 07:20:47;;;;;;;;;;;;;;;17.28;75.65;101761.44;5094924;28;19998;-36
2021/09/08 07:23:12;;;;;;;;;;;;;;;17.35;76.41;101766.72;5094377;28;19915;-36
2021/09/08 07:25:37;;;;;;;;;;;;;;;17.40;75.91;101770.34;5094675;28;19919;-36
2021/09/08 07:28:03;;;;;;;;;;;;;;;17.48;75.50;101761.69;5094284;28;19907;-36
2021/09/08 07:30:28;;;;;;;;;;;;;;;17.53;75.31;101762.84;5094610;28;19907;-36
2021/09/08 07:32:54;;;;;;;;;;;;;;;17.59;75.53;101764.56;5094590;28;19908;-36
2021/09/08 07:35:19;;;;;;;;;;;;;;;17.67;75.81;101764.94;5094155;28;19908;-36
2021/09/08 07:37:44;;;;;;;;;;;;;;;17.78;75.18;101759.59;5094600;28;19908;-36
2021/09/08 07:40:10;;;;;;;;;;;;;;;17.87;74.83;101761.63;5094559;28;19908;-36
2021/09/08 07:42:35;;;;;;;;;;;;;;;17.98;73.98;101768.84;5093956;28;19908;-36
2021/09/08 07:45:00;;;;;;;;;;;;;;;18.08;74.36;101757.19;5094047;28;20003;-36
2021/09/08 07:47:26;;;;;;;;;;;;;;;18.17;74.20;101757.53;5094002;28;19912;-36
2021/09/08 07:49:51;;;;;;;;;;;;;;;18.24;73.11;101752.66;5093876;28;19951;-36
2021/09/08 07:52:16;;;;;;;;;;;;;;;18.29;73.23;101749.97;5093970;28;19954;-36
2021/09/08 07:54:41;;;;;;;;;;;;;;;18.38;73.34;101753.06;5093605;28;20411;-36
2021/09/08 07:57:07;;;;;;;;;;;;;;;18.44;72.72;101746.53;5094827;28;19931;-36
2021/09/08 07:59:32;;;;;;;;;;;;;;;18.50;72.91;101753.72;5094106;28;20355;-36
2021/09/08 08:01:57;;;;;;;;;;;;;;;18.60;73.20;101751.06;5094064;28;19908;-36
2021/09/08 08:04:22;;;;;;;;;;;;;;;18.70;73.00;101756.63;5094119;28;19908;-36
2021/09/08 08:06:48;;;;;;;;;;;;;;;18.81;72.05;101753.97;5094430;28;19969;-36
2021/09/08 08:09:13;;;;;;;;;;;;;;;18.85;71.32;101752.34;5094076;28;19915;-36
2021/09/08 08:11:38;;;;;;;;;;;;;;;18.93;72.15;101752.66;5094072;28;19907;-36
2021/09/08 08:14:03;;;;;;;;;;;;;;;19.07;71.99;101757.69;5093729;28;19931;-36
2021/09/08 08:16:29;;;;;;;;;;;;;;;19.18;71.49;101753.88;5094827;28;19912;-36
2021/09/08 08:18:54;;;;;;;;;;;;;;;19.27;71.24;101750.38;5093706;28;19908;-36
2021/09/08 08:21:19;;;;;;;;;;;;;;;19.38;70.35;101750.44;5093828;28;19961;-36
2021/09/08 08:23:45;;;;;;;;;;;;;;;19.46;70.00;101749.91;5093436;28;19908;-36
2021/09/08 08:26:10;;;;;;;;;;;;;;;19.52;70.35;101743.34;5094166;28;19977;-36
2021/09/08 08:28:35;;;;;;;;;;;;;;;19.59;70.71;101741.19;5093593;28;20371;-36
2021/09/08 08:31:00;;;;;;;;;;;;;;;19.70;70.29;101744.81;5093865;28;19915;-36
2021/09/08 08:33:29;;;;;;;;;;;;;;;19.78;68.83;101742.38;5093477;28;19912;-36
2021/09/08 08:35:54;;;;;;;;;;;;;;;19.89;68.82;101745.94;5093582;28;19908;-36
2021/09/08 08:38:20;;;;;;;;;;;;;;;19.95;68.55;101749.53;5093878;28;19908;-36
2021/09/08 08:40:45;;;;;;;;;;;;;;;20.08;68.51;101753.66;5092209;28;20020;-36
2021/09/08 08:43:10;;;;;;;;;;;;;;;20.18;68.58;101746.25;5093188;28;19908;-36
2021/09/08 08:45:36;;;;;;;;;;;;;;;20.29;68.40;101745.16;5093489;28;19912;-36
2021/09/08 08:48:01;;;;;;;;;;;;;;;20.38;68.53;101750.94;5094042;28;19907;-36
2021/09/08 08:50:27;;;;;;;;;;;;;;;20.44;65.87;101740.78;5093518;28;20003;-36
2021/09/08 08:52:53;;;;;;;;;;;;;;;20.50;66.13;101742.47;5093464;28;19908;-36
2021/09/08 08:55:18;;;;;;;;;;;;;;;20.58;66.74;101741.88;5093397;28;19912;-36
2021/09/08 08:57:48;;;;;;;;;;;;;;;20.68;67.22;101736.38;5093751;28;19908;-36
2021/09/08 09:00:13;;;;;;;;;;;;;;;20.75;65.85;101736.94;5093095;28;20318;-36
2021/09/08 09:02:44;;;;;;;;;;;;;;;20.83;67.09;101733.59;5094459;28;19912;-36
2021/09/08 09:05:09;;;;;;;;;;;;;;;20.92;65.95;101725.59;5097534;28;19949;-36
2021/09/08 09:07:36;;;;;;;;;;;;;;;21.00;66.05;101724.22;5097631;28;19912;-36
2021/09/08 09:10:01;;;;;;;;;;;;;;;21.13;67.11;101733.78;5096742;28;19960;-36
2021/09/08 09:12:28;;;;;;;;;;;;;;;21.25;66.78;101728.81;5097690;28;19908;-36
2021/09/08 09:14:58;;;;;;;;;;;;;;;21.29;65.59;101733.47;5097531;28;19912;-36
2021/09/08 09:17:24;;;;;;;;;;;;;;;21.30;64.93;101726.88;5097571;28;20358;-36
2021/09/08 09:19:50;;;;;;;;;;;;;;;21.37;64.74;101728.50;5096336;28;20252;-36
2021/09/08 09:22:18;;;;;;;;;;;;;;;21.41;63.91;101726.84;5097097;28;19919;-36
2021/09/08 09:24:44;;;;;;;;;;;;;;;21.50;65.14;101734.22;5096808;28;19908;-36
2021/09/08 09:27:11;;;;;;;;;;;;;;;21.67;64.69;101722.00;5097083;28;20360;-36
2021/09/08 09:29:41;;;;;;;;;;;;;;;21.84;65.15;101720.53;5097537;28;19916;-36
2021/09/08 09:32:07;;;;;;;;;;;;;;;22.00;65.33;101725.94;5097273;28;20017;-36
2021/09/08 09:34:33;;;;;;;;;;;;;;;22.13;63.02;101722.56;5097196;28;19947;-36
2021/09/08 09:36:59;;;;;;;;;;;;;;;22.24;63.98;101723.31;5096881;28;20458;-36
2021/09/08 09:39:28;;;;;;;;;;;;;;;22.38;63.48;101723.47;5096524;28;19908;-36
2021/09/08 09:41:57;;;;;;;;;;;;;;;22.46;63.04;101722.84;5097005;28;19908;-36
2021/09/08 09:44:23;;;;;;;;;;;;;;;22.43;61.55;101715.97;5096455;28;19907;-36
2021/09/08 09:46:49;;;;;;;;;;;;;;;22.40;61.04;101710.22;5096390;28;20321;-36
2021/09/08 09:49:15;;;;;;;;;;;;;;;22.48;60.97;101707.66;5096616;28;19908;-36
2021/09/08 09:51:40;;;;;;;;;;;;;;;22.55;61.34;101707.34;5096358;28;20237;-36
2021/09/08 09:54:06;;;;;;;;;;;;;;;22.55;60.04;101701.81;5096255;28;20297;-36
2021/09/08 09:56:32;;;;;;;;;;;;;;;22.58;60.85;101693.78;5096544;28;19907;-36
2021/09/08 09:58:57;;;;;;;;;;;;;;;22.69;61.30;101688.97;5096188;28;19912;-36
2021/09/08 10:01:22;;;;;;;;;;;;;;;22.79;61.03;101686.13;5096538;28;19915;-36
2021/09/08 10:03:48;;;;;;;;;;;;;;;22.90;59.50;101684.09;5096057;28;20268;-36
2021/09/08 10:06:14;;;;;;;;;;;;;;;22.88;60.14;101686.28;5095718;28;19947;-36
2021/09/08 10:08:43;;;;;;;;;;;;;;;22.95;59.68;101674.94;5095991;28;19908;-37
2021/09/08 10:11:10;;;;;;;;;;;;;;;23.06;59.27;101681.97;5096550;28;19917;-36
2021/09/08 10:13:45;;;;;;;;;;;;;;;23.12;58.16;101678.03;5096330;28;19951;-36
2021/09/08 10:16:11;;;;;;;;;;;;;;;23.12;57.29;101667.81;5096638;28;19912;-36
2021/09/08 10:18:36;;;;;;;;;;;;;;;23.17;58.04;101664.16;5096198;28;19912;-36
2021/09/08 10:21:06;;;;;;;;;;;;;;;23.25;58.33;101663.50;5096175;28;20010;-36
2021/09/08 10:23:38;;;;;;;;;;;;;;;23.35;59.11;101652.34;5095725;28;19908;-37
2021/09/08 10:26:13;;;;;;;;;;;;;;;23.51;58.14;101646.59;5095415;28;19994;-37
2021/09/08 10:28:39;;;;;;;;;;;;;;;23.59;59.00;101641.22;5096377;28;20011;-37
2021/09/08 10:31:04;;;;;;;;;;;;;;;23.75;58.67;101643.78;5095461;28;20419;-37
2021/09/08 10:33:30;;;;;;;;;;;;;;;23.89;58.78;101637.19;5095438;28;20003;-37
2021/09/08 10:35:55;;;;;;;;;;;;;;;24.03;56.70;101645.50;5095592;28;20007;-37
2021/09/08 10:38:23;;;;;;;;;;;;;;;23.96;56.55;101633.19;5095756;28;19908;-38
2021/09/08 10:40:50;;;;;;;;;;;;;;;24.03;56.73;101637.22;5096210;28;19914;-37
2021/09/08 10:43:15;;;;;;;;;;;;;;;24.11;55.26;101628.25;5095043;28;19962;-37
2021/09/08 10:45:55;;;;;;;;;;;;;;;24.16;56.10;101624.56;5096081;28;19907;-37
2021/09/08 10:48:33;;;;;;;;;;;;;;;24.18;57.39;101622.31;5095445;28;19912;-38
2021/09/08 10:50:58;;;;;;;;;;;;;;;24.34;57.36;101618.13;5094649;28;20264;-36
2021/09/08 10:53:30;;;;;;;;;;;;;;;24.46;56.10;101611.34;5095173;28;19915;-36
2021/09/08 10:55:56;;;;;;;;;;;;;;;24.41;54.82;101612.25;5095891;28;19915;-36
2021/09/08 10:58:21;;;;;;;;;;;;;;;24.53;55.37;101612.56;5095033;28;20355;-36
2021/09/08 11:00:47;;;;;;;;;;;;;;;24.60;55.68;101601.13;5095520;28;19908;-36
2021/09/08 11:03:15;;;;;;;;;;;;;;;24.76;54.72;101607.97;5094962;28;19978;-36
2021/09/08 11:05:47;;;;;;;;;;;;;;;24.71;54.81;101601.72;5095394;28;19908;-37
2021/09/08 11:08:23;;;;;;;;;;;;;;;24.79;54.00;101595.44;5094889;28;19960;-36
2021/09/08 11:10:48;;;;;;;;;;;;;;;24.80;54.41;101600.69;5095151;28;19915;-37
2021/09/08 11:13:23;;;;;;;;;;;;;;;24.90;54.48;101594.94;5095309;28;19908;-37
2021/09/08 11:15:48;;;;;;;;;;;;;;;25.02;53.68;101582.50;5095200;28;19999;-36
2021/09/08 11:18:13;;;;;;;;;;;;;;;25.07;53.07;101590.72;5094648;28;19943;-36
2021/09/08 11:20:39;;;;;;;;;;;;;;;25.15;53.61;101585.28;5094866;28;20333;-36
2021/09/08 11:23:08;;;;;;;;;;;;;;;25.25;53.51;101587.00;5095342;28;20403;-36
2021/09/08 11:25:38;;;;;;;;;;;;;;;25.32;52.13;101573.53;5094311;28;20259;-37
2021/09/08 11:28:04;;;;;;;;;;;;;;;25.51;53.73;101580.84;5095403;28;19908;-37
2021/09/08 11:30:40;;;;;;;;;;;;;;;25.68;52.49;101575.44;5094720;28;19908;-37
2021/09/08 11:33:06;;;;;;;;;;;;;;;25.88;53.67;101579.69;5094996;28;19907;-36
2021/09/08 11:35:58;;;;;;;;;;;;;;;25.97;51.10;101569.47;5094106;28;19950;-36
2021/09/08 11:38:30;;;;;;;;;;;;;;;25.96;51.20;101561.44;5088727;28;19943;-36
2021/09/08 11:40:59;;;;;;;;;;;;;;;26.08;51.68;101561.69;5093903;28;19912;-36
2021/09/08 11:43:30;;;;;;;;;;;;;;;26.26;52.53;101557.88;5094552;28;19915;-36
2021/09/08 11:45:55;;;;;;;;;;;;;;;26.41;50.09;101562.97;5094732;28;19908;-36
2021/09/08 11:48:27;;;;;;;;;;;;;;;26.39;48.25;101558.88;5093918;28;20006;-36
2021/09/08 11:51:05;;;;;;;;;;;;;;;26.48;49.22;101558.94;5093723;28;19908;-36
2021/09/08 11:53:34;;;;;;;;;;;;;;;26.44;47.95;101561.53;5094094;28;19937;-36
2021/09/08 11:56:09;;;;;;;;;;;;;;;26.27;46.41;101559.50;5093873;28;20360;-36
2021/09/08 11:58:35;;;;;;;;;;;;;;;26.35;48.15;101549.56;5094250;28;20022;-36
2021/09/08 12:01:00;;;;;;;;;;;;;;;26.44;47.33;101544.91;5094220;28;20010;-36
2021/09/08 12:03:26;;;;;;;;;;;;;;;26.43;47.05;101541.31;5093679;28;20311;-36
2021/09/08 12:05:52;;;;;;;;;;;;;;;26.60;47.44;101545.28;5094019;28;19953;-36
2021/09/08 12:08:21;;;;;;;;;;;;;;;26.70;47.43;101550.53;5093620;28;19994;-36
2021/09/08 12:10:46;;;;;;;;;;;;;;;26.77;46.74;101533.41;5094784;28;19911;-37
2021/09/08 12:13:25;;;;;;;;;;;;;;;26.86;47.09;101534.22;5093668;28;19915;-36
2021/09/08 12:15:50;;;;;;;;;;;;;;;26.95;48.03;101530.31;5094258;28;19919;-36
2021/09/08 12:18:16;;;;;;;;;;;;;;;27.04;48.47;101532.31;5093870;28;19915;-37
2021/09/08 12:20:41;;;;;;;;;;;;;;;26.96;44.81;101515.31;5093518;28;19958;-37
2021/09/08 12:23:21;;;;;;;;;;;;;;;26.96;44.20;101520.84;5093729;28;19951;-36
2021/09/08 12:26:01;;;;;;;;;;;;;;;27.02;45.62;101517.91;5093820;28;19922;-37
2021/09/08 12:28:26;;;;;;;;;;;;;;;27.07;46.26;101514.97;5094327;28;19918;-36
2021/09/08 12:31:12;;;;;;;;;;;;;;;27.20;47.03;101508.47;5093540;28;20356;-37